sensor_id;sensor_type;location;lat;lon;timestamp;pressure;altitude;pressure_sealevel;temperature;humidity
17072;BME280;7731;50.720;6.912;2023-04-09T00:00:07;100929.91;;;7.40;100.00
17072;BME280;7731;50.720;6.912;2023-04-09T00:02:37;100931.38;;;7.49;100.00
17072;BME280;7731;50.720;6.912;2023-04-09T00:05:08;100931.53;;;7.43;100.00
17072;BME280;7731;50.720;6.912;2023-04-09T00:07:39;100933.94;;;7.49;100.00
17072;BME280;7731;50.720;6.912;2023-04-09T00:10:10;100931.75;;;7.33;100.00
17072;BME280;7731;50.720;6.912;2023-04-09T00:12:41;100933.44;;;7.35;100.00
17072;BME280;7731;50.720;6.912;2023-04-09T00:15:16;100930.31;;;7.22;100.00
17072;BME280;7731;50.720;6.912;2023-04-09T00:17:57;100930.75;;;7.02;100.00
17072;BME280;7731;50.720;6.912;2023-04-09T00:20:27;100937.22;;;7.18;100.00
17072;BME280;7731;50.720;6.912;2023-04-09T00:22:57;100936.50;;;7.13;100.00
17072;BME280;7731;50.720;6.912;2023-04-09T00:25:31;100937.53;;;7.04;100.00
17072;BME280;7731;50.720;6.912;2023-04-09T00:28:01;100929.94;;;7.01;100.00
17072;BME280;7731;50.720;6.912;2023-04-09T00:30:34;100925.88;;;6.91;100.00
17072;BME280;7731;50.720;6.912;2023-04-09T00:33:04;100925.78;;;6.95;100.00
17072;BME280;7731;50.720;6.912;2023-04-09T00:35:35;100921.53;;;6.96;100.00
17072;BME280;7731;50.720;6.912;2023-04-09T00:38:05;100923.03;;;7.05;100.00
17072;BME280;7731;50.720;6.912;2023-04-09T00:40:38;100918.81;;;7.04;100.00
17072;BME280;7731;50.720;6.912;2023-04-09T00:43:08;100918.75;;;7.07;100.00
17072;BME280;7731;50.720;6.912;2023-04-09T00:45:43;100919.00;;;6.94;100.00
17072;BME280;7731;50.720;6.912;2023-04-09T00:48:16;100914.84;;;6.90;100.00
17072;BME280;7731;50.720;6.912;2023-04-09T00:50:47;100921.91;;;6.79;100.00
17072;BME280;7731;50.720;6.912;2023-04-09T00:53:17;100910.69;;;6.85;100.00
17072;BME280;7731;50.720;6.912;2023-04-09T00:55:48;100914.94;;;6.86;100.00
17072;BME280;7731;50.720;6.912;2023-04-09T00:58:18;100920.53;;;7.02;100.00
17072;BME280;7731;50.720;6.912;2023-04-09T01:00:51;100917.31;;;6.93;100.00
17072;BME280;7731;50.720;6.912;2023-04-09T01:03:21;100919.00;;;6.94;100.00
17072;BME280;7731;50.720;6.912;2023-04-09T01:06:06;100920.97;;;7.21;100.00
17072;BME280;7731;50.720;6.912;2023-04-09T01:08:48;100916.16;;;7.08;100.00
17072;BME280;7731;50.720;6.912;2023-04-09T01:11:31;100918.63;;;7.11;100.00
17072;BME280;7731;50.720;6.912;2023-04-09T01:14:11;100912.22;;;6.93;100.00
17072;BME280;7731;50.720;6.912;2023-04-09T01:16:53;100915.22;;;6.72;100.00
17072;BME280;7731;50.720;6.912;2023-04-09T01:19:40;100916.81;;;6.77;100.00
17072;BME280;7731;50.720;6.912;2023-04-09T01:22:39;100917.16;;;6.60;100.00
17072;BME280;7731;50.720;6.912;2023-04-09T01:25:36;100915.50;;;6.58;100.00
17072;BME280;7731;50.720;6.912;2023-04-09T01:28:26;100909.41;;;6.65;100.00
17072;BME280;7731;50.720;6.912;2023-04-09T01:31:01;100912.41;;;6.84;100.00
17072;BME280;7731;50.720;6.912;2023-04-09T01:33:34;100915.69;;;6.89;100.00
17072;BME280;7731;50.720;6.912;2023-04-09T01:36:08;100913.91;;;6.94;100.00
17072;BME280;7731;50.720;6.912;2023-04-09T01:38:41;100914.03;;;6.88;100.00
17072;BME280;7731;50.720;6.912;2023-04-09T01:41:17;100905.50;;;6.88;100.00
17072;BME280;7731;50.720;6.912;2023-04-09T01:43:52;100912.06;;;7.00;100.00
17072;BME280;7731;50.720;6.912;2023-04-09T01:46:23;100907.72;;;7.03;100.00
17072;BME280;7731;50.720;6.912;2023-04-09T01:48:55;100912.22;;;6.93;100.00
17072;BME280;7731;50.720;6.912;2023-04-09T01:51:26;100911.22;;;6.58;100.00
17072;BME280;7731;50.720;6.912;2023-04-09T01:53:58;100909.88;;;6.42;100.00
17072;BME280;7731;50.720;6.912;2023-04-09T01:56:38;100913.47;;;6.32;100.00
17072;BME280;7731;50.720;6.912;2023-04-09T01:59:12;100905.41;;;6.08;100.00
17072;BME280;7731;50.720;6.912;2023-04-09T02:01:46;100911.25;;;6.15;100.00
17072;BME280;7731;50.720;6.912;2023-04-09T02:04:22;100914.44;;;6.70;100.00
17072;BME280;7731;50.720;6.912;2023-04-09T02:07:00;100896.75;;;7.00;100.00
17072;BME280;7731;50.720;6.912;2023-04-09T02:09:38;100896.16;;;6.46;100.00
17072;BME280;7731;50.720;6.912;2023-04-09T02:12:12;100901.75;;;6.65;100.00
17072;BME280;7731;50.720;6.912;2023-04-09T02:14:47;100900.69;;;6.74;100.00
17072;BME280;7731;50.720;6.912;2023-04-09T02:17:20;100895.72;;;6.68;100.00
17072;BME280;7731;50.720;6.912;2023-04-09T02:19:50;100897.03;;;6.47;100.00
17072;BME280;7731;50.720;6.912;2023-04-09T02:22:21;100897.84;;;6.47;100.00
17072;BME280;7731;50.720;6.912;2023-04-09T02:24:51;100892.56;;;6.56;100.00
17072;BME280;7731;50.720;6.912;2023-04-09T02:27:22;100881.81;;;6.42;100.00
17072;BME280;7731;50.720;6.912;2023-04-09T02:29:54;100889.75;;;6.25;100.00
17072;BME280;7731;50.720;6.912;2023-04-09T02:32:25;100897.53;;;6.19;100.00
17072;BME280;7731;50.720;6.912;2023-04-09T02:34:55;100901.81;;;6.18;100.00
17072;BME280;7731;50.720;6.912;2023-04-09T02:37:25;100895.72;;;6.25;100.00
17072;BME280;7731;50.720;6.912;2023-04-09T02:39:55;100895.78;;;6.65;100.00
17072;BME280;7731;50.720;6.912;2023-04-09T02:42:25;100895.44;;;6.41;100.00
17072;BME280;7731;50.720;6.912;2023-04-09T02:45:00;100882.78;;;6.35;100.00
17072;BME280;7731;50.720;6.912;2023-04-09T02:47:31;100892.94;;;6.38;100.00
17072;BME280;7731;50.720;6.912;2023-04-09T02:50:03;100887.00;;;6.37;100.00
17072;BME280;7731;50.720;6.912;2023-04-09T02:52:34;100880.28;;;6.74;100.00
17072;BME280;7731;50.720;6.912;2023-04-09T02:55:06;100876.06;;;6.73;100.00
17072;BME280;7731;50.720;6.912;2023-04-09T02:57:36;100881.75;;;6.45;100.00
17072;BME280;7731;50.720;6.912;2023-04-09T03:00:11;100875.94;;;6.37;100.00
17072;BME280;7731;50.720;6.912;2023-04-09T03:02:46;100881.22;;;6.28;100.00
17072;BME280;7731;50.720;6.912;2023-04-09T03:05:16;100878.53;;;6.34;100.00
17072;BME280;7731;50.720;6.912;2023-04-09T03:07:47;100880.38;;;6.27;100.00
17072;BME280;7731;50.720;6.912;2023-04-09T03:10:17;100875.25;;;6.29;100.00
17072;BME280;7731;50.720;6.912;2023-04-09T03:12:47;100865.19;;;6.21;100.00
17072;BME280;7731;50.720;6.912;2023-04-09T03:15:20;100867.84;;;6.16;100.00
17072;BME280;7731;50.720;6.912;2023-04-09T03:17:50;100866.38;;;6.03;100.00
17072;BME280;7731;50.720;6.912;2023-04-09T03:20:21;100867.38;;;5.93;100.00
17072;BME280;7731;50.720;6.912;2023-04-09T03:22:51;100878.63;;;5.84;100.00
17072;BME280;7731;50.720;6.912;2023-04-09T03:25:21;100871.97;;;5.75;100.00
17072;BME280;7731;50.720;6.912;2023-04-09T03:27:52;100865.28;;;5.68;100.00
17072;BME280;7731;50.720;6.912;2023-04-09T03:30:25;100872.81;;;5.74;100.00
17072;BME280;7731;50.720;6.912;2023-04-09T03:32:55;100871.94;;;5.77;100.00
17072;BME280;7731;50.720;6.912;2023-04-09T03:35:26;100859.13;;;5.80;100.00
17072;BME280;7731;50.720;6.912;2023-04-09T03:37:56;100867.78;;;5.71;100.00
17072;BME280;7731;50.720;6.912;2023-04-09T03:40:26;100869.69;;;5.60;100.00
17072;BME280;7731;50.720;6.912;2023-04-09T03:42:57;100870.53;;;5.59;100.00
17072;BME280;7731;50.720;6.912;2023-04-09T03:45:32;100868.09;;;5.52;100.00
17072;BME280;7731;50.720;6.912;2023-04-09T03:48:03;100865.59;;;5.49;100.00
17072;BME280;7731;50.720;6.912;2023-04-09T03:50:37;100859.72;;;5.93;100.00
17072;BME280;7731;50.720;6.912;2023-04-09T03:53:08;100859.50;;;6.06;100.00
17072;BME280;7731;50.720;6.912;2023-04-09T03:55:38;100866.53;;;5.94;100.00
17072;BME280;7731;50.720;6.912;2023-04-09T03:58:09;100868.13;;;6.01;100.00
17072;BME280;7731;50.720;6.912;2023-04-09T04:00:41;100858.19;;;5.85;100.00
17072;BME280;7731;50.720;6.912;2023-04-09T04:03:12;100855.69;;;5.82;100.00
17072;BME280;7731;50.720;6.912;2023-04-09T04:05:42;100858.28;;;5.79;100.00
17072;BME280;7731;50.720;6.912;2023-04-09T04:08:13;100856.56;;;5.81;100.00
17072;BME280;7731;50.720;6.912;2023-04-09T04:10:43;100862.28;;;5.93;100.00
17072;BME280;7731;50.720;6.912;2023-04-09T04:13:13;100857.19;;;5.93;100.00
17072;BME280;7731;50.720;6.912;2023-04-09T04:15:46;100847.19;;;5.82;100.00
17072;BME280;7731;50.720;6.912;2023-04-09T04:18:16;100856.13;;;5.58;100.00
17072;BME280;7731;50.720;6.912;2023-04-09T04:20:47;100855.59;;;5.37;100.00
17072;BME280;7731;50.720;6.912;2023-04-09T04:23:17;100867.78;;;5.19;100.00
17072;BME280;7731;50.720;6.912;2023-04-09T04:25:48;100861.88;;;5.16;100.00
17072;BME280;7731;50.720;6.912;2023-04-09T04:28:19;100859.75;;;4.87;100.00
17072;BME280;7731;50.720;6.912;2023-04-09T04:30:52;100860.00;;;4.68;100.00
17072;BME280;7731;50.720;6.912;2023-04-09T04:33:22;100858.09;;;5.40;100.00
17072;BME280;7731;50.720;6.912;2023-04-09T04:35:52;100850.53;;;5.85;100.00
17072;BME280;7731;50.720;6.912;2023-04-09T04:38:22;100848.25;;;6.17;100.00
17072;BME280;7731;50.720;6.912;2023-04-09T04:40:53;100852.09;;;6.38;100.00
17072;BME280;7731;50.720;6.912;2023-04-09T04:43:23;100853.66;;;6.45;100.00
17072;BME280;7731;50.720;6.912;2023-04-09T04:45:56;100848.69;;;6.39;100.00
17072;BME280;7731;50.720;6.912;2023-04-09T04:48:28;100854.44;;;6.49;100.00
17072;BME280;7731;50.720;6.912;2023-04-09T04:51:00;100851.16;;;6.43;100.00
17072;BME280;7731;50.720;6.912;2023-04-09T04:53:30;100846.69;;;6.53;100.00
17072;BME280;7731;50.720;6.912;2023-04-09T04:56:01;100849.16;;;6.56;100.00
17072;BME280;7731;50.720;6.912;2023-04-09T04:58:31;100854.97;;;6.22;100.00
17072;BME280;7731;50.720;6.912;2023-04-09T05:01:04;100859.50;;;6.06;100.00
17072;BME280;7731;50.720;6.912;2023-04-09T05:03:34;100859.47;;;6.08;100.00
17072;BME280;7731;50.720;6.912;2023-04-09T05:06:05;100857.22;;;6.38;100.00
17072;BME280;7731;50.720;6.912;2023-04-09T05:08:35;100860.78;;;6.71;100.00
17072;BME280;7731;50.720;6.912;2023-04-09T05:11:10;100865.28;;;6.58;100.00
17072;BME280;7731;50.720;6.912;2023-04-09T05:13:47;100869.38;;;6.23;100.00
17072;BME280;7731;50.720;6.912;2023-04-09T05:16:20;100869.78;;;6.03;100.00
17072;BME280;7731;50.720;6.912;2023-04-09T05:18:50;100870.75;;;5.96;100.00
17072;BME280;7731;50.720;6.912;2023-04-09T05:21:23;100869.97;;;5.91;100.00
17072;BME280;7731;50.720;6.912;2023-04-09T05:23:53;100876.53;;;6.06;100.00
17072;BME280;7731;50.720;6.912;2023-04-09T05:26:24;100873.78;;;6.17;100.00
17072;BME280;7731;50.720;6.912;2023-04-09T05:28:54;100874.13;;;5.98;100.00
17072;BME280;7731;50.720;6.912;2023-04-09T05:31:27;100878.41;;;5.95;100.00
17072;BME280;7731;50.720;6.912;2023-04-09T05:33:58;100875.25;;;5.80;100.00
17072;BME280;7731;50.720;6.912;2023-04-09T05:36:28;100873.44;;;5.88;100.00
17072;BME280;7731;50.720;6.912;2023-04-09T05:38:58;100869.94;;;5.93;100.00
17072;BME280;7731;50.720;6.912;2023-04-09T05:41:31;100878.47;;;5.92;100.00
17072;BME280;7731;50.720;6.912;2023-04-09T05:44:04;100876.69;;;5.97;100.00
17072;BME280;7731;50.720;6.912;2023-04-09T05:46:37;100868.38;;;5.85;100.00
17072;BME280;7731;50.720;6.912;2023-04-09T05:49:07;100873.19;;;6.04;100.00
17072;BME280;7731;50.720;6.912;2023-04-09T05:51:37;100871.25;;;6.15;100.00
17072;BME280;7731;50.720;6.912;2023-04-09T05:54:11;100864.34;;;6.20;100.00
17072;BME280;7731;50.720;6.912;2023-04-09T05:56:42;100870.88;;;6.34;100.00
17072;BME280;7731;50.720;6.912;2023-04-09T05:59:14;100877.69;;;6.35;100.00
17072;BME280;7731;50.720;6.912;2023-04-09T06:01:47;100872.13;;;6.56;100.00
17072;BME280;7731;50.720;6.912;2023-04-09T06:04:17;100868.25;;;6.79;100.00
17072;BME280;7731;50.720;6.912;2023-04-09T06:06:48;100872.44;;;6.82;100.00
17072;BME280;7731;50.720;6.912;2023-04-09T06:09:18;100871.75;;;6.75;100.00
17072;BME280;7731;50.720;6.912;2023-04-09T06:11:48;100879.63;;;6.64;100.00
17072;BME280;7731;50.720;6.912;2023-04-09T06:14:18;100872.72;;;6.69;100.00
17072;BME280;7731;50.720;6.912;2023-04-09T06:16:51;100878.41;;;6.82;100.00
17072;BME280;7731;50.720;6.912;2023-04-09T06:19:22;100877.84;;;7.07;100.00
17072;BME280;7731;50.720;6.912;2023-04-09T06:21:52;100872.25;;;7.28;100.00
17072;BME280;7731;50.720;6.912;2023-04-09T06:24:23;100874.47;;;7.05;100.00
17072;BME280;7731;50.720;6.912;2023-04-09T06:26:53;100863.59;;;7.32;100.00
17072;BME280;7731;50.720;6.912;2023-04-09T06:29:23;100867.19;;;7.60;100.00
17072;BME280;7731;50.720;6.912;2023-04-09T06:31:56;100862.78;;;7.66;100.00
17072;BME280;7731;50.720;6.912;2023-04-09T06:34:27;100860.47;;;7.90;100.00
17072;BME280;7731;50.720;6.912;2023-04-09T06:36:59;100865.78;;;8.14;100.00
17072;BME280;7731;50.720;6.912;2023-04-09T06:39:32;100865.44;;;8.86;100.00
17072;BME280;7731;50.720;6.912;2023-04-09T06:42:06;100864.91;;;9.31;100.00
17072;BME280;7731;50.720;6.912;2023-04-09T06:44:37;100871.09;;;10.01;100.00
17072;BME280;7731;50.720;6.912;2023-04-09T06:47:09;100884.09;;;9.71;100.00
17072;BME280;7731;50.720;6.912;2023-04-09T06:49:40;100868.44;;;10.28;100.00
17072;BME280;7731;50.720;6.912;2023-04-09T06:52:10;100878.59;;;10.31;100.00
17072;BME280;7731;50.720;6.912;2023-04-09T06:54:40;100879.38;;;10.80;94.23
17072;BME280;7731;50.720;6.912;2023-04-09T06:57:12;100884.69;;;10.98;93.37
17072;BME280;7731;50.720;6.912;2023-04-09T06:59:43;100881.22;;;10.77;94.59
17072;BME280;7731;50.720;6.912;2023-04-09T07:02:16;100877.56;;;11.47;88.12
17072;BME280;7731;50.720;6.912;2023-04-09T07:04:46;100883.97;;;11.79;82.08
17072;BME280;7731;50.720;6.912;2023-04-09T07:07:17;100880.13;;;11.88;83.75
17072;BME280;7731;50.720;6.912;2023-04-09T07:09:52;100878.34;;;11.70;85.30
17072;BME280;7731;50.720;6.912;2023-04-09T07:12:26;100885.75;;;11.77;86.00
17072;BME280;7731;50.720;6.912;2023-04-09T07:14:57;100876.41;;;12.54;79.33
17072;BME280;7731;50.720;6.912;2023-04-09T07:17:31;100878.91;;;12.75;73.53
17072;BME280;7731;50.720;6.912;2023-04-09T07:20:01;100892.38;;;11.83;74.82
17072;BME280;7731;50.720;6.912;2023-04-09T07:22:32;100881.59;;;13.27;68.54
17072;BME280;7731;50.720;6.912;2023-04-09T07:25:03;100877.69;;;15.93;57.10
17072;BME280;7731;50.720;6.912;2023-04-09T07:27:34;100874.22;;;17.44;46.65
17072;BME280;7731;50.720;6.912;2023-04-09T07:30:07;100870.56;;;18.61;44.25
17072;BME280;7731;50.720;6.912;2023-04-09T07:32:40;100871.69;;;18.70;44.34
17072;BME280;7731;50.720;6.912;2023-04-09T07:35:11;100874.44;;;19.39;40.40
17072;BME280;7731;50.720;6.912;2023-04-09T07:37:41;100867.31;;;20.11;38.58
17072;BME280;7731;50.720;6.912;2023-04-09T07:40:12;100867.28;;;20.88;36.80
17072;BME280;7731;50.720;6.912;2023-04-09T07:42:45;100875.09;;;18.70;40.55
17072;BME280;7731;50.720;6.912;2023-04-09T07:45:16;100867.31;;;20.22;36.86
17072;BME280;7731;50.720;6.912;2023-04-09T07:47:49;100871.56;;;19.78;38.05
17072;BME280;7731;50.720;6.912;2023-04-09T07:50:19;100868.75;;;20.15;35.16
17072;BME280;7731;50.720;6.912;2023-04-09T07:52:59;100874.69;;;20.61;34.47
17072;BME280;7731;50.720;6.912;2023-04-09T07:55:29;100873.31;;;21.64;32.00
17072;BME280;7731;50.720;6.912;2023-04-09T07:57:59;100868.34;;;21.18;33.08
17072;BME280;7731;50.720;6.912;2023-04-09T08:00:36;100870.31;;;22.40;30.59
17072;BME280;7731;50.720;6.912;2023-04-09T08:03:09;100873.09;;;23.07;27.84
17072;BME280;7731;50.720;6.912;2023-04-09T08:05:41;100867.72;;;22.79;29.10
17072;BME280;7731;50.720;6.912;2023-04-09T08:08:11;100879.41;;;21.74;27.22
17072;BME280;7731;50.720;6.912;2023-04-09T08:10:42;100862.78;;;24.37;25.24
17072;BME280;7731;50.720;6.912;2023-04-09T08:13:19;100871.59;;;22.55;26.87
17072;BME280;7731;50.720;6.912;2023-04-09T08:15:52;100879.78;;;21.90;27.71
17072;BME280;7731;50.720;6.912;2023-04-09T08:18:25;100874.72;;;21.99;27.26
17072;BME280;7731;50.720;6.912;2023-04-09T08:20:56;100868.59;;;23.66;24.62
17072;BME280;7731;50.720;6.912;2023-04-09T08:23:26;100883.97;;;21.72;27.17
17072;BME280;7731;50.720;6.912;2023-04-09T08:25:57;100871.31;;;22.58;25.36
17072;BME280;7731;50.720;6.912;2023-04-09T08:28:27;100873.28;;;22.25;26.63
17072;BME280;7731;50.720;6.912;2023-04-09T08:30:58;100880.34;;;20.88;28.08
17072;BME280;7731;50.720;6.912;2023-04-09T08:33:32;100874.88;;;23.83;25.55
17072;BME280;7731;50.720;6.912;2023-04-09T08:36:07;100878.84;;;22.42;25.55
17072;BME280;7731;50.720;6.912;2023-04-09T08:38:38;100876.44;;;22.79;24.87
17072;BME280;7731;50.720;6.912;2023-04-09T08:41:19;100879.16;;;24.67;23.98
17072;BME280;7731;50.720;6.912;2023-04-09T08:43:52;100869.25;;;26.02;22.32
17072;BME280;7731;50.720;6.912;2023-04-09T08:46:26;100878.34;;;24.21;22.76
17072;BME280;7731;50.720;6.912;2023-04-09T08:49:01;100880.84;;;23.85;23.36
17072;BME280;7731;50.720;6.912;2023-04-09T08:51:32;100874.56;;;26.18;21.54
17072;BME280;7731;50.720;6.912;2023-04-09T08:54:02;100887.72;;;24.69;22.19
17072;BME280;7731;50.720;6.912;2023-04-09T08:56:32;100872.56;;;24.35;22.36
17072;BME280;7731;50.720;6.912;2023-04-09T08:59:03;100877.56;;;25.10;22.19
17072;BME280;7731;50.720;6.912;2023-04-09T09:01:33;100871.38;;;25.38;22.07
17072;BME280;7731;50.720;6.912;2023-04-09T09:04:07;100873.56;;;25.06;22.61
17072;BME280;7731;50.720;6.912;2023-04-09T09:06:40;100873.50;;;23.79;23.87
17072;BME280;7731;50.720;6.912;2023-04-09T09:09:15;100878.34;;;24.21;23.44
17072;BME280;7731;50.720;6.912;2023-04-09T09:11:47;100874.78;;;24.94;22.58
17072;BME280;7731;50.720;6.912;2023-04-09T09:14:19;100874.88;;;25.73;22.07
17072;BME280;7731;50.720;6.912;2023-04-09T09:17:04;100873.69;;;23.10;24.46
17072;BME280;7731;50.720;6.912;2023-04-09T09:19:37;100873.66;;;22.91;24.20
17072;BME280;7731;50.720;6.912;2023-04-09T09:22:08;100873.09;;;24.21;23.27
17072;BME280;7731;50.720;6.912;2023-04-09T09:24:45;100865.28;;;24.29;23.16
17072;BME280;7731;50.720;6.912;2023-04-09T09:27:35;100873.63;;;22.42;25.10
17072;BME280;7731;50.720;6.912;2023-04-09T09:30:08;100867.44;;;24.43;22.76
17072;BME280;7731;50.720;6.912;2023-04-09T09:32:39;100872.38;;;22.36;26.04
17072;BME280;7731;50.720;6.912;2023-04-09T09:35:12;100872.00;;;23.29;24.56
17072;BME280;7731;50.720;6.912;2023-04-09T09:37:42;100880.00;;;22.18;25.83
17072;BME280;7731;50.720;6.912;2023-04-09T09:40:26;100870.22;;;22.10;26.82
17072;BME280;7731;50.720;6.912;2023-04-09T09:42:57;100865.25;;;22.07;27.18
17072;BME280;7731;50.720;6.912;2023-04-09T09:45:28;100857.03;;;21.81;27.44
17072;BME280;7731;50.720;6.912;2023-04-09T09:47:59;100859.53;;;21.62;27.65
17072;BME280;7731;50.720;6.912;2023-04-09T09:50:34;100857.38;;;21.25;26.91
17072;BME280;7731;50.720;6.912;2023-04-09T09:53:10;100857.41;;;20.92;27.74
17072;BME280;7731;50.720;6.912;2023-04-09T09:55:47;100851.31;;;20.15;28.87
17072;BME280;7731;50.720;6.912;2023-04-09T09:58:25;100849.00;;;21.10;27.44
17072;BME280;7731;50.720;6.912;2023-04-09T10:01:01;100849.09;;;21.62;27.71
17072;BME280;7731;50.720;6.912;2023-04-09T10:03:38;100842.16;;;22.22;26.27
17072;BME280;7731;50.720;6.912;2023-04-09T10:06:13;100851.09;;;20.07;28.54
17072;BME280;7731;50.720;6.912;2023-04-09T10:08:47;100849.88;;;20.23;28.94
17072;BME280;7731;50.720;6.912;2023-04-09T10:11:19;100849.22;;;22.01;27.01
17072;BME280;7731;50.720;6.912;2023-04-09T10:13:56;100838.31;;;23.44;24.64
17072;BME280;7731;50.720;6.912;2023-04-09T10:16:27;100838.88;;;23.28;25.28
17072;BME280;7731;50.720;6.912;2023-04-09T10:18:58;100840.13;;;23.71;24.36
17072;BME280;7731;50.720;6.912;2023-04-09T10:21:40;100837.16;;;23.56;24.55
17072;BME280;7731;50.720;6.912;2023-04-09T10:24:12;100845.56;;;23.60;25.03
17072;BME280;7731;50.720;6.912;2023-04-09T10:26:43;100835.03;;;24.07;24.88
17072;BME280;7731;50.720;6.912;2023-04-09T10:29:15;100849.72;;;21.75;28.03
17072;BME280;7731;50.720;6.912;2023-04-09T10:31:51;100840.94;;;23.34;25.02
17072;BME280;7731;50.720;6.912;2023-04-09T10:34:26;100848.84;;;21.22;28.38
17072;BME280;7731;50.720;6.912;2023-04-09T10:37:01;100852.69;;;19.52;31.90
17072;BME280;7731;50.720;6.912;2023-04-09T10:39:32;100851.97;;;19.61;30.81
17072;BME280;7731;50.720;6.912;2023-04-09T10:42:13;100836.97;;;20.21;29.92
17072;BME280;7731;50.720;6.912;2023-04-09T10:44:43;100840.75;;;21.04;28.31
17072;BME280;7731;50.720;6.912;2023-04-09T10:47:31;100829.94;;;23.11;26.62
17072;BME280;7731;50.720;6.912;2023-04-09T10:50:18;100842.84;;;21.32;28.70
17072;BME280;7731;50.720;6.912;2023-04-09T10:52:56;100834.53;;;20.84;29.83
17072;BME280;7731;50.720;6.912;2023-04-09T10:55:33;100830.50;;;20.80;29.96
17072;BME280;7731;50.720;6.912;2023-04-09T10:58:06;100831.31;;;21.96;28.11
17072;BME280;7731;50.720;6.912;2023-04-09T11:00:42;100832.81;;;20.19;31.37
17072;BME280;7731;50.720;6.912;2023-04-09T11:04:06;100826.31;;;20.45;30.78
17072;BME280;7731;50.720;6.912;2023-04-09T11:06:39;100834.19;;;18.11;33.63
17072;BME280;7731;50.720;6.912;2023-04-09T11:09:14;100831.63;;;17.73;35.64
17072;BME280;7731;50.720;6.912;2023-04-09T11:11:51;100825.56;;;18.96;33.12
17072;BME280;7731;50.720;6.912;2023-04-09T11:14:23;100816.03;;;20.76;31.04
17072;BME280;7731;50.720;6.912;2023-04-09T11:16:53;100807.25;;;19.78;31.42
17072;BME280;7731;50.720;6.912;2023-04-09T11:19:24;100827.13;;;17.23;35.73
17072;BME280;7731;50.720;6.912;2023-04-09T11:21:55;100829.91;;;16.53;35.96
17072;BME280;7731;50.720;6.912;2023-04-09T11:24:39;100825.81;;;15.64;38.29
17072;BME280;7731;50.720;6.912;2023-04-09T11:27:14;100817.81;;;16.93;38.93
17072;BME280;7731;50.720;6.912;2023-04-09T11:29:47;100812.38;;;17.37;36.33
17072;BME280;7731;50.720;6.912;2023-04-09T11:32:17;100802.50;;;19.03;33.99
17072;BME280;7731;50.720;6.912;2023-04-09T11:34:47;100802.91;;;19.32;32.62
17072;BME280;7731;50.720;6.912;2023-04-09T11:37:21;100801.81;;;19.12;32.08
17072;BME280;7731;50.720;6.912;2023-04-09T11:39:55;100788.50;;;19.85;31.70
17072;BME280;7731;50.720;6.912;2023-04-09T11:42:30;100795.94;;;19.44;32.14
17072;BME280;7731;50.720;6.912;2023-04-09T11:45:02;100797.00;;;19.41;31.75
17072;BME280;7731;50.720;6.912;2023-04-09T11:47:33;100792.06;;;19.84;31.84
17072;BME280;7731;50.720;6.912;2023-04-09T11:50:07;100793.25;;;19.91;31.37
17072;BME280;7731;50.720;6.912;2023-04-09T11:52:41;100790.84;;;19.76;30.84
17072;BME280;7731;50.720;6.912;2023-04-09T11:55:23;100793.25;;;19.91;30.79
17072;BME280;7731;50.720;6.912;2023-04-09T11:57:57;100792.81;;;20.29;29.95
17072;BME280;7731;50.720;6.912;2023-04-09T12:00:29;100800.34;;;20.44;29.47
17072;BME280;7731;50.720;6.912;2023-04-09T12:03:04;100800.03;;;19.01;31.46
17072;BME280;7731;50.720;6.912;2023-04-09T12:05:35;100802.63;;;19.01;32.47
17072;BME280;7731;50.720;6.912;2023-04-09T12:08:09;100797.59;;;18.87;32.76
17072;BME280;7731;50.720;6.912;2023-04-09T12:10:42;100798.38;;;19.12;33.35
17072;BME280;7731;50.720;6.912;2023-04-09T12:13:12;100812.06;;;17.16;36.22
17072;BME280;7731;50.720;6.912;2023-04-09T12:15:43;100801.06;;;17.38;36.00
17072;BME280;7731;50.720;6.912;2023-04-09T12:18:13;100801.91;;;17.51;36.25
17072;BME280;7731;50.720;6.912;2023-04-09T12:20:45;100800.31;;;17.87;35.93
17072;BME280;7731;50.720;6.912;2023-04-09T12:23:16;100802.47;;;16.36;37.85
17072;BME280;7731;50.720;6.912;2023-04-09T12:25:49;100803.44;;;16.20;37.78
17072;BME280;7731;50.720;6.912;2023-04-09T12:28:21;100805.50;;;16.70;36.56
17072;BME280;7731;50.720;6.912;2023-04-09T12:30:51;100793.84;;;16.63;37.27
17072;BME280;7731;50.720;6.912;2023-04-09T12:33:22;100802.25;;;16.39;38.53
17072;BME280;7731;50.720;6.912;2023-04-09T12:35:52;100795.66;;;16.20;39.24
17072;BME280;7731;50.720;6.912;2023-04-09T12:38:24;100797.44;;;15.91;38.94
17072;BME280;7731;50.720;6.912;2023-04-09T12:40:57;100806.19;;;15.60;40.31
17072;BME280;7731;50.720;6.912;2023-04-09T12:43:28;100808.63;;;15.77;40.29
17072;BME280;7731;50.720;6.912;2023-04-09T12:45:58;100796.66;;;16.18;40.32
17072;BME280;7731;50.720;6.912;2023-04-09T12:48:28;100801.56;;;16.22;39.45
17072;BME280;7731;50.720;6.912;2023-04-09T12:50:59;100790.56;;;15.61;40.32
17072;BME280;7731;50.720;6.912;2023-04-09T12:53:29;100801.75;;;16.19;39.22
17072;BME280;7731;50.720;6.912;2023-04-09T12:56:04;100796.81;;;16.84;38.41
17072;BME280;7731;50.720;6.912;2023-04-09T12:58:34;100801.84;;;16.72;38.23
17072;BME280;7731;50.720;6.912;2023-04-09T13:01:06;100798.72;;;16.94;38.08
17072;BME280;7731;50.720;6.912;2023-04-09T13:03:37;100792.63;;;16.68;37.83
17072;BME280;7731;50.720;6.912;2023-04-09T13:06:08;100789.47;;;15.80;39.51
17072;BME280;7731;50.720;6.912;2023-04-09T13:08:38;100792.28;;;16.87;36.93
17072;BME280;7731;50.720;6.912;2023-04-09T13:11:13;100780.69;;;17.31;35.88
17072;BME280;7731;50.720;6.912;2023-04-09T13:13:43;100766.38;;;17.13;35.54
17072;BME280;7731;50.720;6.912;2023-04-09T13:16:13;100770.28;;;16.93;36.42
17072;BME280;7731;50.720;6.912;2023-04-09T13:18:45;100773.41;;;16.71;36.46
17072;BME280;7731;50.720;6.912;2023-04-09T13:21:18;100770.38;;;16.91;35.88
17072;BME280;7731;50.720;6.912;2023-04-09T13:23:48;100774.66;;;16.38;36.85
17072;BME280;7731;50.720;6.912;2023-04-09T13:26:22;100779.44;;;16.44;36.15
17072;BME280;7731;50.720;6.912;2023-04-09T13:28:52;100772.41;;;16.46;36.48